Aqualoyalty — A8ZC6 — position and weather

sailwx.info

Track history (hours):
 
Tides and Currents Weather Stations Pressure Air Temp Water Temp Dewpoint Dewpoint Depression Visibility Wind Speed Wind Dir Waves Ship Positions

Aqualoyalty

Last reported at 2017-Mar-18 08:20 UTC. Time now 2017-Mar-24 16:04 UTC.
Position N 30°27' W 125°10'.

Length 249 m; draft 13.5 m.

Type: Ship. MMSI: 636015177.

Date/timePositionNaut miles runAvg speedWind from/ knotsBaromVisibWave heightAir tempDewpointWater temp
2017-Mar-18 08:20N 30°27' W 125°10'1113.4
2017-Mar-18 07:33N 30°27' W 124°58'1413.6
2017-Mar-18 06:32N 30°27' W 124°42'1313.5
2017-Mar-18 05:34N 30°27' W 124°26'1413.5
2017-Mar-18 04:32N 30°26' W 124°10'1313.4
2017-Mar-18 03:34N 30°26' W 123°55'1313.2
2017-Mar-18 02:34N 30°26' W 123°40'1313.3
2017-Mar-18 01:33N 30°26' W 123°24'1313.2
2017-Mar-18 00:33N 30°26' W 123°09'1313.2
2017-Mar-17 23:33N 30°26' W 122°54'1313.0
2017-Mar-17 22:34N 30°25' W 122°39'1312.7
2017-Mar-17 21:34N 30°25' W 122°24'1312.6
2017-Mar-17 20:33N 30°25' W 122°09'1312.9
2017-Mar-17 19:34N 30°25' W 121°54'1313.0
2017-Mar-17 18:33N 30°27' W 121°40'1313.1
2017-Mar-17 17:34N 30°29' W 121°25'1312.9
2017-Mar-17 16:33N 30°32' W 121°10'1312.8
2017-Mar-17 15:33N 30°35' W 120°55'1312.9
2017-Mar-17 14:33N 30°37' W 120°41'1313.1
2017-Mar-17 13:34N 30°40' W 120°26'1313.0
2017-Mar-17 12:33N 30°43' W 120°11'1313.0
2017-Mar-17 11:34N 30°46' W 119°56'1312.9
2017-Mar-17 10:33N 30°48' W 119°42'1313.1
2017-Mar-17 09:33N 30°51' W 119°27'1212.6
2017-Mar-17 08:34N 30°54' W 119°12'9 9.0
2017-Mar-17 07:34N 31°00' W 119°05'1211.7
2017-Mar-17 06:34N 31°12' W 119°05'1211.9
2017-Mar-17 05:33N 31°24' W 119°05'10 9.7
2017-Mar-17 04:33N 31°34' W 119°03'3 2.7
2017-Mar-17 03:33N 31°36' W 119°05'4 3.6
2017-Mar-17 02:33N 31°36' W 119°10'1 0.6
2017-Mar-17 01:34N 31°37' W 119°10'2 2.0
2017-Mar-17 00:34N 31°38' W 119°08'2 1.7
2017-Mar-16 23:34N 31°39' W 119°10'1 1.3
2017-Mar-16 22:34N 31°40' W 119°11'2 1.5
2017-Mar-16 21:33N 31°41' W 119°12'2 1.5
2017-Mar-16 20:29N 31°42' W 119°13'2 1.8
2017-Mar-16 19:33N 31°43' W 119°15'2 1.9
2017-Mar-16 18:33N 31°45' W 119°16'2 2.0
2017-Mar-16 17:33N 31°46' W 119°18'2 1.6
2017-Mar-16 16:33N 31°47' W 119°20'2 1.9
2017-Mar-16 15:34N 31°48' W 119°21'2 1.6
2017-Mar-16 14:34N 31°49' W 119°23'1 1.3
2017-Mar-16 13:33N 31°49' W 119°24'1 1.0
2017-Mar-16 12:34N 31°50' W 119°25'1 0.8
2017-Mar-16 11:33N 31°50' W 119°26'1 0.8
2017-Mar-16 10:33N 31°51' W 119°27'1 0.9
2017-Mar-16 09:33N 31°52' W 119°27'1 1.0
2017-Mar-16 08:33N 31°52' W 119°28'1 0.9
2017-Mar-16 07:34N 31°53' W 119°28'1 1.1
2017-Mar-16 06:33N 31°54' W 119°29'1 1.0
2017-Mar-16 05:33N 31°55' W 119°30'1 1.3
2017-Mar-16 04:34N 31°56' W 119°31'1 1.5
2017-Mar-16 03:34N 31°57' W 119°32'2 1.5
2017-Mar-16 02:33N 31°59' W 119°33'1 1.4
2017-Mar-16 01:34N 31°60' W 119°33'2 1.6
2017-Mar-16 00:33N 32°01' W 119°34'3 3.4
2017-Mar-15 23:34N 32°04' W 119°37'5 5.3
2017-Mar-15 22:33N 32°07' W 119°42'5 5.0
2017-Mar-15 21:34N 32°05' W 119°47'2 1.6
2017-Mar-15 20:33N 32°07' W 119°47'2 2.4
2017-Mar-15 19:34N 32°09' W 119°49'3 2.6
2017-Mar-15 18:33N 32°11' W 119°50'2 1.5
2017-Mar-15 17:34N 32°13' W 119°51'1 0.7
2017-Mar-15 16:34N 32°13' W 119°51'1 0.7
2017-Mar-15 15:34N 32°14' W 119°51'1 0.9
2017-Mar-15 14:34N 32°15' W 119°51'7 7.2
2017-Mar-15 13:34N 32°15' W 119°43'1111.4
2017-Mar-15 12:33N 32°15' W 119°29'1211.8
2017-Mar-15 11:33N 32°15' W 119°15'1211.8
2017-Mar-15 10:33N 32°15' W 119°01'1212.1
2017-Mar-15 09:34N 32°21' W 118°49'1212.3
2017-Mar-15 08:33N 32°27' W 118°36'1212.2
2017-Mar-15 07:34N 32°33' W 118°23'1212.0
2017-Mar-15 06:34N 32°39' W 118°11'1110.9
2017-Mar-15 05:33N 32°49' W 118°06'1312.5
2017-Mar-15 04:33N 33°01' W 118°06'1111.5
2017-Mar-15 03:34N 33°13' W 118°06'1211.6
2017-Mar-15 02:33N 33°24' W 118°09'1211.7
2017-Mar-15 01:34N 33°35' W 118°13'8 7.2
2017-Mar-15 00:31N 33°41' W 118°07'0 0.4
2017-Mar-14 23:32N 33°41' W 118°07'4 4.2
2017-Mar-14 22:34N 33°44' W 118°10'0 0.4
2017-Mar-14 21:32N 33°44' W 118°10'0 0.0
2017-Mar-14 20:32N 33°44' W 118°10'0 0.1
2017-Mar-14 19:32N 33°44' W 118°10'0 0.1
2017-Mar-14 18:29N 33°44' W 118°10'0 0.1
2017-Mar-14 17:32N 33°44' W 118°10'0 0.1
2017-Mar-14 16:32N 33°44' W 118°10'0 0.1
2017-Mar-14 15:29N 33°44' W 118°10'0 0.1
2017-Mar-14 14:32N 33°44' W 118°10'0 0.0
2017-Mar-14 13:29N 33°44' W 118°10'0 0.1
2017-Mar-14 12:32N 33°44' W 118°10'0 0.1
2017-Mar-14 11:32N 33°44' W 118°10'0 0.1
2017-Mar-14 10:29N 33°44' W 118°10'0 0.0
2017-Mar-14 09:32N 33°44' W 118°10'0 0.0
2017-Mar-14 08:20N 33°44' W 118°10'0 0.0
2017-Mar-14 07:32N 33°44' W 118°10'0 0.1
2017-Mar-14 06:32N 33°44' W 118°10'0 0.1
2017-Mar-14 05:32N 33°44' W 118°10'0 0.1
2017-Mar-14 04:32N 33°44' W 118°10'0 0.1
2017-Mar-14 03:32N 33°44' W 118°10'0 0.1
2017-Mar-14 02:32N 33°44' W 118°10'0 0.0
2017-Mar-14 01:32N 33°44' W 118°10'0 0.0
2017-Mar-14 00:32N 33°44' W 118°10'0 0.0
2017-Mar-13 23:32N 33°44' W 118°10'0 0.0
2017-Mar-13 22:29N 33°44' W 118°10'0 0.0
2017-Mar-13 21:32N 33°44' W 118°10'0 0.1
2017-Mar-13 20:32N 33°44' W 118°10'0 0.1
2017-Mar-13 19:32N 33°44' W 118°10'0 0.1
2017-Mar-13 18:32N 33°44' W 118°10'0 0.1
2017-Mar-13 17:29N 33°44' W 118°10'0 0.1
2017-Mar-13 16:32N 33°44' W 118°10'0 0.1
2017-Mar-13 15:29N 33°44' W 118°10'0 0.1
2017-Mar-13 14:32N 33°44' W 118°10'0 0.0
2017-Mar-13 13:32N 33°44' W 118°10'0 0.1
2017-Mar-13 12:32N 33°44' W 118°10'0 0.0
2017-Mar-13 11:32N 33°44' W 118°10'0 0.0
2017-Mar-13 10:32N 33°44' W 118°10'0 0.1
2017-Mar-13 09:32N 33°44' W 118°10'0 0.0
2017-Mar-13 08:32N 33°44' W 118°10'0 0.1
2017-Mar-13 07:32N 33°44' W 118°10'0 0.0
2017-Mar-13 06:32N 33°44' W 118°10'0 0.0
2017-Mar-13 05:32N 33°44' W 118°10'0 0.2
2017-Mar-13 04:32N 33°44' W 118°10'0 0.2
2017-Mar-13 03:32N 33°44' W 118°10'0 0.0
2017-Mar-13 02:32N 33°44' W 118°10'0 0.0
2017-Mar-13 01:29N 33°44' W 118°10'0 0.0
2017-Mar-13 00:32N 33°44' W 118°10'0 0.0
2017-Mar-12 23:32N 33°44' W 118°10'0 0.0
2017-Mar-12 22:32N 33°44' W 118°10'0 0.0
2017-Mar-12 21:32N 33°44' W 118°10'0 0.0
2017-Mar-12 20:32N 33°44' W 118°10'0 0.1
2017-Mar-12 19:32N 33°44' W 118°10'0 0.1
2017-Mar-12 18:32N 33°44' W 118°10'0 0.0
2017-Mar-12 17:32N 33°44' W 118°10'0 0.0
2017-Mar-12 16:32N 33°44' W 118°10'0 0.1
2017-Mar-12 15:32N 33°44' W 118°10'0 0.1
2017-Mar-12 14:32N 33°44' W 118°10'0 0.0
2017-Mar-12 13:29N 33°44' W 118°10'0 0.1
2017-Mar-12 12:32N 33°44' W 118°10'0 0.0
2017-Mar-12 11:32N 33°44' W 118°10'0 0.1
2017-Mar-12 10:32N 33°44' W 118°10'0 0.1
2017-Mar-12 09:32N 33°44' W 118°10'0 0.1
2017-Mar-12 08:32N 33°44' W 118°10'0 0.0
2017-Mar-12 07:32N 33°44' W 118°10'0 0.1
2017-Mar-12 06:32N 33°44' W 118°10'0 0.1
2017-Mar-12 05:32N 33°44' W 118°10'0 0.0
2017-Mar-12 04:32N 33°44' W 118°10'0 0.1
2017-Mar-12 03:29N 33°44' W 118°10'0 0.0
2017-Mar-12 02:32N 33°44' W 118°10'0 0.0
2017-Mar-12 01:32N 33°44' W 118°10'0 0.0
2017-Mar-12 00:32N 33°44' W 118°10'0 0.0
2017-Mar-11 23:32N 33°44' W 118°10'0 0.0
2017-Mar-11 22:32N 33°44' W 118°10'0 0.0
2017-Mar-11 21:32N 33°44' W 118°10'0 0.0
2017-Mar-11 20:32N 33°44' W 118°10'0 0.1
2017-Mar-11 19:32N 33°44' W 118°10'0 0.2
2017-Mar-11 18:32N 33°44' W 118°10'0 0.0
2017-Mar-11 17:32N 33°44' W 118°10'0 0.0
2017-Mar-11 16:32N 33°44' W 118°10'0 0.1
2017-Mar-11 15:32N 33°44' W 118°10'0 0.2
2017-Mar-11 14:32N 33°44' W 118°10'0 0.1
2017-Mar-11 13:32N 33°44' W 118°10'0 0.0
2017-Mar-11 12:29N 33°44' W 118°10'0 0.0
2017-Mar-11 11:32N 33°44' W 118°10'0 0.0
2017-Mar-11 10:32N 33°44' W 118°10'0 0.0
2017-Mar-11 09:32N 33°44' W 118°10'0 0.1
2017-Mar-11 08:29N 33°44' W 118°10'0 0.1
2017-Mar-11 07:32N 33°44' W 118°10'0 0.1
2017-Mar-11 06:32N 33°44' W 118°10'0 0.1
2017-Mar-11 05:32N 33°44' W 118°10'0 0.1
2017-Mar-11 04:32N 33°44' W 118°10'0 0.0
2017-Mar-11 03:32N 33°44' W 118°10'0 0.0
2017-Mar-11 02:32N 33°44' W 118°10'0 0.0
2017-Mar-11 01:32N 33°44' W 118°10'0 0.0
2017-Mar-11 00:32N 33°44' W 118°10'0 0.0
2017-Mar-10 23:32N 33°44' W 118°10'0 0.0
2017-Mar-10 22:32N 33°44' W 118°10'0 0.0
2017-Mar-10 21:32N 33°44' W 118°10'0 0.0
2017-Mar-10 20:32N 33°44' W 118°10'0 0.0
2017-Mar-10 19:32N 33°44' W 118°10'0 0.2
2017-Mar-10 18:32N 33°44' W 118°10'0 0.1
2017-Mar-10 17:32N 33°44' W 118°10'0 0.0
2017-Mar-10 16:32N 33°44' W 118°10'0 0.0
2017-Mar-10 15:32N 33°44' W 118°10'0 0.1
2017-Mar-10 14:29N 33°44' W 118°10'0 0.1
2017-Mar-10 13:32N 33°44' W 118°10'0 0.1
2017-Mar-10 12:32N 33°44' W 118°10'0 0.1
2017-Mar-10 11:32N 33°44' W 118°10'0 0.1
2017-Mar-10 10:32N 33°44' W 118°10'0 0.2
2017-Mar-10 09:32N 33°44' W 118°10'0 0.1
2017-Mar-10 08:32N 33°44' W 118°10'0 0.0
2017-Mar-10 07:32N 33°44' W 118°10'0 0.1
2017-Mar-10 06:29N 33°44' W 118°10'0 0.1
2017-Mar-10 05:32N 33°44' W 118°10'0 0.0
2017-Mar-10 04:32N 33°44' W 118°10'0 0.0
2017-Mar-10 03:32N 33°44' W 118°10'0 0.0
2017-Mar-10 02:32N 33°44' W 118°10'0 0.0
2017-Mar-10 01:32N 33°44' W 118°10'0 0.0
2017-Mar-10 00:32N 33°44' W 118°10'0 0.0
2017-Mar-09 23:32N 33°44' W 118°10'0 0.0
2017-Mar-09 22:32N 33°44' W 118°10'0 0.0
2017-Mar-09 21:32N 33°44' W 118°10'0 0.0
2017-Mar-09 20:20N 33°44' W 118°10'0 0.0
2017-Mar-09 19:32N 33°44' W 118°10'0 0.2
2017-Mar-09 18:32N 33°44' W 118°10'0 0.1
2017-Mar-09 17:32N 33°44' W 118°10'0 0.0
2017-Mar-09 16:32N 33°44' W 118°10'0 0.1
2017-Mar-09 15:32N 33°44' W 118°10'0 0.0
2017-Mar-09 14:32N 33°44' W 118°10'0 0.1
2017-Mar-09 13:32N 33°44' W 118°10'0 0.1
2017-Mar-09 12:32N 33°44' W 118°10'2 1.8
2017-Mar-09 11:33N 33°42' W 118°11'8 8.0
2017-Mar-09 10:33N 33°36' W 118°17'1111.3
2017-Mar-09 09:33N 33°40' W 118°30'9 8.9
2017-Mar-09 08:33N 33°49' W 118°32'6 6.2
2017-Mar-09 07:33N 33°54' W 118°27'  
Track history (hours):
 
Tides and Currents Weather Stations Pressure Air Temp Water Temp Dewpoint Dewpoint Depression Visibility Wind Speed Wind Dir Waves Ship Positions

Aqualoyalty

Last reported at 2017-Mar-18 08:20 UTC. Time now 2017-Mar-24 16:04 UTC.
Position N 30°27' W 125°10'.

Length 249 m; draft 13.5 m.

Type: Ship. MMSI: 636015177.

Date/timePositionNaut miles runAvg speedWind from/ knotsBaromVisibWave heightAir tempDewpointWater temp
2017-Mar-18 08:20N 30°27' W 125°10'1113.4
2017-Mar-18 07:33N 30°27' W 124°58'1413.6
2017-Mar-18 06:32N 30°27' W 124°42'1313.5
2017-Mar-18 05:34N 30°27' W 124°26'1413.5
2017-Mar-18 04:32N 30°26' W 124°10'1313.4
2017-Mar-18 03:34N 30°26' W 123°55'1313.2
2017-Mar-18 02:34N 30°26' W 123°40'1313.3
2017-Mar-18 01:33N 30°26' W 123°24'1313.2
2017-Mar-18 00:33N 30°26' W 123°09'1313.2
2017-Mar-17 23:33N 30°26' W 122°54'1313.0
2017-Mar-17 22:34N 30°25' W 122°39'1312.7
2017-Mar-17 21:34N 30°25' W 122°24'1312.6
2017-Mar-17 20:33N 30°25' W 122°09'1312.9
2017-Mar-17 19:34N 30°25' W 121°54'1313.0
2017-Mar-17 18:33N 30°27' W 121°40'1313.1
2017-Mar-17 17:34N 30°29' W 121°25'1312.9
2017-Mar-17 16:33N 30°32' W 121°10'1312.8
2017-Mar-17 15:33N 30°35' W 120°55'1312.9
2017-Mar-17 14:33N 30°37' W 120°41'1313.1
2017-Mar-17 13:34N 30°40' W 120°26'1313.0
2017-Mar-17 12:33N 30°43' W 120°11'1313.0
2017-Mar-17 11:34N 30°46' W 119°56'1312.9
2017-Mar-17 10:33N 30°48' W 119°42'1313.1
2017-Mar-17 09:33N 30°51' W 119°27'1212.6
2017-Mar-17 08:34N 30°54' W 119°12'9 9.0
2017-Mar-17 07:34N 31°00' W 119°05'1211.7
2017-Mar-17 06:34N 31°12' W 119°05'1211.9
2017-Mar-17 05:33N 31°24' W 119°05'10 9.7
2017-Mar-17 04:33N 31°34' W 119°03'3 2.7
2017-Mar-17 03:33N 31°36' W 119°05'4 3.6
2017-Mar-17 02:33N 31°36' W 119°10'1 0.6
2017-Mar-17 01:34N 31°37' W 119°10'2 2.0
2017-Mar-17 00:34N 31°38' W 119°08'2 1.7
2017-Mar-16 23:34N 31°39' W 119°10'1 1.3
2017-Mar-16 22:34N 31°40' W 119°11'2 1.5
2017-Mar-16 21:33N 31°41' W 119°12'2 1.5
2017-Mar-16 20:29N 31°42' W 119°13'2 1.8
2017-Mar-16 19:33N 31°43' W 119°15'2 1.9
2017-Mar-16 18:33N 31°45' W 119°16'2 2.0
2017-Mar-16 17:33N 31°46' W 119°18'2 1.6
2017-Mar-16 16:33N 31°47' W 119°20'2 1.9
2017-Mar-16 15:34N 31°48' W 119°21'2 1.6
2017-Mar-16 14:34N 31°49' W 119°23'1 1.3
2017-Mar-16 13:33N 31°49' W 119°24'1 1.0
2017-Mar-16 12:34N 31°50' W 119°25'1 0.8
2017-Mar-16 11:33N 31°50' W 119°26'1 0.8
2017-Mar-16 10:33N 31°51' W 119°27'1 0.9
2017-Mar-16 09:33N 31°52' W 119°27'1 1.0
2017-Mar-16 08:33N 31°52' W 119°28'1 0.9
2017-Mar-16 07:34N 31°53' W 119°28'1 1.1
2017-Mar-16 06:33N 31°54' W 119°29'1 1.0
2017-Mar-16 05:33N 31°55' W 119°30'1 1.3
2017-Mar-16 04:34N 31°56' W 119°31'1 1.5
2017-Mar-16 03:34N 31°57' W 119°32'2 1.5
2017-Mar-16 02:33N 31°59' W 119°33'1 1.4
2017-Mar-16 01:34N 31°60' W 119°33'2 1.6
2017-Mar-16 00:33N 32°01' W 119°34'3 3.4
2017-Mar-15 23:34N 32°04' W 119°37'5 5.3
2017-Mar-15 22:33N 32°07' W 119°42'5 5.0
2017-Mar-15 21:34N 32°05' W 119°47'2 1.6
2017-Mar-15 20:33N 32°07' W 119°47'2 2.4
2017-Mar-15 19:34N 32°09' W 119°49'3 2.6
2017-Mar-15 18:33N 32°11' W 119°50'2 1.5
2017-Mar-15 17:34N 32°13' W 119°51'1 0.7
2017-Mar-15 16:34N 32°13' W 119°51'1 0.7
2017-Mar-15 15:34N 32°14' W 119°51'1 0.9
2017-Mar-15 14:34N 32°15' W 119°51'7 7.2
2017-Mar-15 13:34N 32°15' W 119°43'1111.4
2017-Mar-15 12:33N 32°15' W 119°29'1211.8
2017-Mar-15 11:33N 32°15' W 119°15'1211.8
2017-Mar-15 10:33N 32°15' W 119°01'1212.1
2017-Mar-15 09:34N 32°21' W 118°49'1212.3
2017-Mar-15 08:33N 32°27' W 118°36'1212.2
2017-Mar-15 07:34N 32°33' W 118°23'1212.0
2017-Mar-15 06:34N 32°39' W 118°11'1110.9
2017-Mar-15 05:33N 32°49' W 118°06'1312.5
2017-Mar-15 04:33N 33°01' W 118°06'1111.5
2017-Mar-15 03:34N 33°13' W 118°06'1211.6
2017-Mar-15 02:33N 33°24' W 118°09'1211.7
2017-Mar-15 01:34N 33°35' W 118°13'8 7.2
2017-Mar-15 00:31N 33°41' W 118°07'0 0.4
2017-Mar-14 23:32N 33°41' W 118°07'4 4.2
2017-Mar-14 22:34N 33°44' W 118°10'0 0.4
2017-Mar-14 21:32N 33°44' W 118°10'0 0.0
2017-Mar-14 20:32N 33°44' W 118°10'0 0.1
2017-Mar-14 19:32N 33°44' W 118°10'0 0.1
2017-Mar-14 18:29N 33°44' W 118°10'0 0.1
2017-Mar-14 17:32N 33°44' W 118°10'0 0.1
2017-Mar-14 16:32N 33°44' W 118°10'0 0.1
2017-Mar-14 15:29N 33°44' W 118°10'0 0.1
2017-Mar-14 14:32N 33°44' W 118°10'0 0.0
2017-Mar-14 13:29N 33°44' W 118°10'0 0.1
2017-Mar-14 12:32N 33°44' W 118°10'0 0.1
2017-Mar-14 11:32N 33°44' W 118°10'0 0.1
2017-Mar-14 10:29N 33°44' W 118°10'0 0.0
2017-Mar-14 09:32N 33°44' W 118°10'0 0.0
2017-Mar-14 08:20N 33°44' W 118°10'0 0.0
2017-Mar-14 07:32N 33°44' W 118°10'0 0.1
2017-Mar-14 06:32N 33°44' W 118°10'0 0.1
2017-Mar-14 05:32N 33°44' W 118°10'0 0.1
2017-Mar-14 04:32N 33°44' W 118°10'0 0.1
2017-Mar-14 03:32N 33°44' W 118°10'0 0.1
2017-Mar-14 02:32N 33°44' W 118°10'0 0.0
2017-Mar-14 01:32N 33°44' W 118°10'0 0.0
2017-Mar-14 00:32N 33°44' W 118°10'0 0.0
2017-Mar-13 23:32N 33°44' W 118°10'0 0.0
2017-Mar-13 22:29N 33°44' W 118°10'0 0.0
2017-Mar-13 21:32N 33°44' W 118°10'0 0.1
2017-Mar-13 20:32N 33°44' W 118°10'0 0.1
2017-Mar-13 19:32N 33°44' W 118°10'0 0.1
2017-Mar-13 18:32N 33°44' W 118°10'0 0.1
2017-Mar-13 17:29N 33°44' W 118°10'0 0.1
2017-Mar-13 16:32N 33°44' W 118°10'0 0.1
2017-Mar-13 15:29N 33°44' W 118°10'0 0.1
2017-Mar-13 14:32N 33°44' W 118°10'0 0.0
2017-Mar-13 13:32N 33°44' W 118°10'0 0.1
2017-Mar-13 12:32N 33°44' W 118°10'0 0.0
2017-Mar-13 11:32N 33°44' W 118°10'0 0.0
2017-Mar-13 10:32N 33°44' W 118°10'0 0.1
2017-Mar-13 09:32N 33°44' W 118°10'0 0.0
2017-Mar-13 08:32N 33°44' W 118°10'0 0.1
2017-Mar-13 07:32N 33°44' W 118°10'0 0.0
2017-Mar-13 06:32N 33°44' W 118°10'0 0.0
2017-Mar-13 05:32N 33°44' W 118°10'0 0.2
2017-Mar-13 04:32N 33°44' W 118°10'0 0.2
2017-Mar-13 03:32N 33°44' W 118°10'0 0.0
2017-Mar-13 02:32N 33°44' W 118°10'0 0.0
2017-Mar-13 01:29N 33°44' W 118°10'0 0.0
2017-Mar-13 00:32N 33°44' W 118°10'0 0.0
2017-Mar-12 23:32N 33°44' W 118°10'0 0.0
2017-Mar-12 22:32N 33°44' W 118°10'0 0.0
2017-Mar-12 21:32N 33°44' W 118°10'0 0.0
2017-Mar-12 20:32N 33°44' W 118°10'0 0.1
2017-Mar-12 19:32N 33°44' W 118°10'0 0.1
2017-Mar-12 18:32N 33°44' W 118°10'0 0.0
2017-Mar-12 17:32N 33°44' W 118°10'0 0.0
2017-Mar-12 16:32N 33°44' W 118°10'0 0.1
2017-Mar-12 15:32N 33°44' W 118°10'0 0.1
2017-Mar-12 14:32N 33°44' W 118°10'0 0.0
2017-Mar-12 13:29N 33°44' W 118°10'0 0.1
2017-Mar-12 12:32N 33°44' W 118°10'0 0.0
2017-Mar-12 11:32N 33°44' W 118°10'0 0.1
2017-Mar-12 10:32N 33°44' W 118°10'0 0.1
2017-Mar-12 09:32N 33°44' W 118°10'0 0.1
2017-Mar-12 08:32N 33°44' W 118°10'0 0.0
2017-Mar-12 07:32N 33°44' W 118°10'0 0.1
2017-Mar-12 06:32N 33°44' W 118°10'0 0.1
2017-Mar-12 05:32N 33°44' W 118°10'0 0.0
2017-Mar-12 04:32N 33°44' W 118°10'0 0.1
2017-Mar-12 03:29N 33°44' W 118°10'0 0.0
2017-Mar-12 02:32N 33°44' W 118°10'0 0.0
2017-Mar-12 01:32N 33°44' W 118°10'0 0.0
2017-Mar-12 00:32N 33°44' W 118°10'0 0.0
2017-Mar-11 23:32N 33°44' W 118°10'0 0.0
2017-Mar-11 22:32N 33°44' W 118°10'0 0.0
2017-Mar-11 21:32N 33°44' W 118°10'0 0.0
2017-Mar-11 20:32N 33°44' W 118°10'0 0.1
2017-Mar-11 19:32N 33°44' W 118°10'0 0.2
2017-Mar-11 18:32N 33°44' W 118°10'0 0.0
2017-Mar-11 17:32N 33°44' W 118°10'0 0.0
2017-Mar-11 16:32N 33°44' W 118°10'0 0.1
2017-Mar-11 15:32N 33°44' W 118°10'0 0.2
2017-Mar-11 14:32N 33°44' W 118°10'0 0.1
2017-Mar-11 13:32N 33°44' W 118°10'0 0.0
2017-Mar-11 12:29N 33°44' W 118°10'0 0.0
2017-Mar-11 11:32N 33°44' W 118°10'0 0.0
2017-Mar-11 10:32N 33°44' W 118°10'0 0.0
2017-Mar-11 09:32N 33°44' W 118°10'0 0.1
2017-Mar-11 08:29N 33°44' W 118°10'0 0.1
2017-Mar-11 07:32N 33°44' W 118°10'0 0.1
2017-Mar-11 06:32N 33°44' W 118°10'0 0.1
2017-Mar-11 05:32N 33°44' W 118°10'0 0.1
2017-Mar-11 04:32N 33°44' W 118°10'0 0.0
2017-Mar-11 03:32N 33°44' W 118°10'0 0.0
2017-Mar-11 02:32N 33°44' W 118°10'0 0.0
2017-Mar-11 01:32N 33°44' W 118°10'0 0.0
2017-Mar-11 00:32N 33°44' W 118°10'0 0.0
2017-Mar-10 23:32N 33°44' W 118°10'0 0.0
2017-Mar-10 22:32N 33°44' W 118°10'0 0.0
2017-Mar-10 21:32N 33°44' W 118°10'0 0.0
2017-Mar-10 20:32N 33°44' W 118°10'0 0.0
2017-Mar-10 19:32N 33°44' W 118°10'0 0.2
2017-Mar-10 18:32N 33°44' W 118°10'0 0.1
2017-Mar-10 17:32N 33°44' W 118°10'0 0.0
2017-Mar-10 16:32N 33°44' W 118°10'0 0.0
2017-Mar-10 15:32N 33°44' W 118°10'0 0.1
2017-Mar-10 14:29N 33°44' W 118°10'0 0.1
2017-Mar-10 13:32N 33°44' W 118°10'0 0.1
2017-Mar-10 12:32N 33°44' W 118°10'0 0.1
2017-Mar-10 11:32N 33°44' W 118°10'0 0.1
2017-Mar-10 10:32N 33°44' W 118°10'0 0.2
2017-Mar-10 09:32N 33°44' W 118°10'0 0.1
2017-Mar-10 08:32N 33°44' W 118°10'0 0.0
2017-Mar-10 07:32N 33°44' W 118°10'0 0.1
2017-Mar-10 06:29N 33°44' W 118°10'0 0.1
2017-Mar-10 05:32N 33°44' W 118°10'0 0.0
2017-Mar-10 04:32N 33°44' W 118°10'0 0.0
2017-Mar-10 03:32N 33°44' W 118°10'0 0.0
2017-Mar-10 02:32N 33°44' W 118°10'0 0.0
2017-Mar-10 01:32N 33°44' W 118°10'0 0.0
2017-Mar-10 00:32N 33°44' W 118°10'0 0.0
2017-Mar-09 23:32N 33°44' W 118°10'0 0.0
2017-Mar-09 22:32N 33°44' W 118°10'0 0.0
2017-Mar-09 21:32N 33°44' W 118°10'0 0.0
2017-Mar-09 20:20N 33°44' W 118°10'0 0.0
2017-Mar-09 19:32N 33°44' W 118°10'0 0.2
2017-Mar-09 18:32N 33°44' W 118°10'0 0.1
2017-Mar-09 17:32N 33°44' W 118°10'0 0.0
2017-Mar-09 16:32N 33°44' W 118°10'0 0.1
2017-Mar-09 15:32N 33°44' W 118°10'0 0.0
2017-Mar-09 14:32N 33°44' W 118°10'0 0.1
2017-Mar-09 13:32N 33°44' W 118°10'0 0.1
2017-Mar-09 12:32N 33°44' W 118°10'2 1.8
2017-Mar-09 11:33N 33°42' W 118°11'8 8.0
2017-Mar-09 10:33N 33°36' W 118°17'1111.3
2017-Mar-09 09:33N 33°40' W 118°30'9 8.9
2017-Mar-09 08:33N 33°49' W 118°32'6 6.2
2017-Mar-09 07:33N 33°54' W 118°27'  

Dump ship's entire track history